Terminal Aerodrome Forecast
Issued by NWS

Home | Current Version | Previous Version | Graphics & Text | Print | Product List | Glossary On
Versions: 1 2 3 4 5 6 7 8 9 10 11 12 13 14 15 16 17 18 19 20 21 22 23 24 25 26 27 28 29
000
FTUS43 KLOT 241140
TAFGYY
TAF
KGYY 241140Z 2412/2512 03007KT 4SM -SHRA VCTS OVC003CB
      TEMPO 2412/2413 2SM TSRA
     FM241300 VRB06KT 6SM BR VCSH OVC005
     FM241500 18011KT P6SM OVC007
     FM241700 21012G19KT P6SM VCSH SCT020 BKN060
     FM242100 26013G20KT P6SM BKN035
     FM250400 28015G22KT P6SM OVC020
      TEMPO 2507/2509 3SM -RASN
     FM250900 29015G22KT 2SM -SN OVC015=

USA.gov is the U.S. government's official web portal to all federal, state and local government web resources and services.